createdAt,value
2023-11-24T00:01:44.944Z,1.38
2023-11-24T00:04:12.585Z,1.85
2023-11-24T00:06:40.304Z,1.98
2023-11-24T00:09:09.296Z,1.70
2023-11-24T00:11:36.951Z,1.70
2023-11-24T00:14:05.788Z,1.98
2023-11-24T00:16:33.411Z,1.60
2023-11-24T00:19:01.087Z,2.08
2023-11-24T00:21:28.984Z,1.80
2023-11-24T00:23:56.599Z,1.75
2023-11-24T00:26:27.348Z,1.83
2023-11-24T00:29:02.107Z,1.70
2023-11-24T00:31:30.167Z,1.65
2023-11-24T00:33:58.014Z,2.00
2023-11-24T00:36:26.121Z,1.50
2023-11-24T00:38:53.996Z,2.38
2023-11-24T00:41:24.045Z,1.48
2023-11-24T00:43:53.060Z,1.50
2023-11-24T00:46:20.668Z,1.52
2023-11-24T00:48:48.488Z,1.60
2023-11-24T00:51:16.691Z,1.50
2023-11-24T00:53:44.387Z,1.50
2023-11-24T00:56:12.616Z,1.50
2023-11-24T00:58:44.846Z,1.00
2023-11-24T01:01:13.856Z,1.75
2023-11-24T01:03:41.750Z,1.50
2023-11-24T01:06:09.733Z,1.52
2023-11-24T01:08:37.575Z,1.23
2023-11-24T01:11:05.207Z,1.45
2023-11-24T01:13:34.825Z,1.60
2023-11-24T01:16:03.666Z,1.58
2023-11-24T01:18:34.917Z,1.67
2023-11-24T01:21:02.593Z,1.33
2023-11-24T01:23:30.957Z,1.45
2023-11-24T01:25:58.599Z,1.40
2023-11-24T01:28:27.739Z,1.30
2023-11-24T01:30:57.871Z,1.60
2023-11-24T01:33:25.958Z,1.45
2023-11-24T01:35:57.064Z,1.50
2023-11-24T01:38:25.125Z,1.80
2023-11-24T01:40:52.856Z,1.88
2023-11-24T01:43:20.568Z,1.75
2023-11-24T01:45:49.108Z,1.10
2023-11-24T01:48:19.180Z,1.88
2023-11-24T01:50:47.360Z,1.45
2023-11-24T01:53:16.484Z,1.58
2023-11-24T01:55:44.245Z,1.70
2023-11-24T01:58:12.118Z,1.55
2023-11-24T02:00:40.569Z,1.75
2023-11-24T02:03:08.337Z,1.67
2023-11-24T02:05:38.404Z,1.80
2023-11-24T02:08:07.647Z,1.80
2023-11-24T02:10:37.033Z,1.67
2023-11-24T02:13:04.799Z,1.73
2023-11-24T02:15:32.470Z,1.70
2023-11-24T02:18:00.280Z,1.70
2023-11-24T02:20:28.620Z,1.77
2023-11-24T02:22:57.587Z,1.50
2023-11-24T02:25:26.703Z,1.88
2023-11-24T02:27:54.328Z,1.75
2023-11-24T02:30:22.049Z,1.90
2023-11-24T02:32:50.252Z,1.65
2023-11-24T02:35:18.095Z,1.60
2023-11-24T02:37:45.697Z,1.58
2023-11-24T02:44:21.800Z,1.67
2023-11-24T02:46:49.391Z,1.98
2023-11-24T02:49:17.950Z,1.70
2023-11-24T02:51:45.959Z,1.55
2023-11-24T02:54:13.562Z,1.33
2023-11-24T02:56:41.150Z,1.70
2023-11-24T02:59:08.763Z,1.30
2023-11-24T03:01:38.289Z,1.60
2023-11-24T03:04:06.620Z,1.40
2023-11-24T03:06:41.623Z,1.10
2023-11-24T03:09:10.433Z,1.17
2023-11-24T03:11:38.176Z,1.30
2023-11-24T03:14:06.300Z,1.20
2023-11-24T03:16:34.845Z,1.58
2023-11-24T03:19:05.378Z,1.30
2023-11-24T03:21:34.174Z,1.30
2023-11-24T03:24:01.961Z,1.23
2023-11-24T03:26:29.715Z,1.15
2023-11-24T03:28:58.501Z,1.10
2023-11-24T03:31:26.132Z,1.15
2023-11-24T03:33:53.838Z,1.20
2023-11-24T03:36:23.951Z,1.00
2023-11-24T03:38:51.644Z,0.90
2023-11-24T03:41:19.316Z,1.05
2023-11-24T03:43:47.668Z,1.10
2023-11-24T03:46:16.131Z,1.08
2023-11-24T03:48:43.929Z,1.17
2023-11-24T03:51:11.767Z,1.00
2023-11-24T03:53:40.783Z,0.80
2023-11-24T03:56:08.876Z,0.80
2023-11-24T03:58:36.532Z,0.90
2023-11-24T04:01:04.307Z,0.80
2023-11-24T04:03:32.084Z,0.80
2023-11-24T04:05:59.762Z,0.85
2023-11-24T04:08:27.368Z,1.00
2023-11-24T04:10:58.919Z,1.20
2023-11-24T04:13:26.853Z,0.73
2023-11-24T04:15:54.992Z,1.00
2023-11-24T04:18:22.651Z,1.10
2023-11-24T04:20:50.252Z,0.80
2023-11-24T04:23:18.413Z,1.00
2023-11-24T04:25:46.038Z,0.82
2023-11-24T04:28:16.473Z,1.33
2023-11-24T04:30:44.377Z,0.80
2023-11-24T04:33:12.029Z,0.90
2023-11-24T04:35:39.819Z,0.85
2023-11-24T04:38:07.712Z,1.10
2023-11-24T04:40:35.304Z,1.60
2023-11-24T04:43:02.989Z,0.80
2023-11-24T04:45:32.195Z,0.70
2023-11-24T04:47:59.976Z,0.93
2023-11-24T04:50:27.701Z,0.93
2023-11-24T04:52:55.413Z,0.77
2023-11-24T04:55:23.011Z,0.80
2023-11-24T04:57:51.890Z,0.80
2023-11-24T05:00:20.207Z,0.70
2023-11-24T05:02:51.236Z,0.70
2023-11-24T05:05:18.939Z,0.73
2023-11-24T05:07:46.558Z,0.70
2023-11-24T05:10:14.221Z,0.55
2023-11-24T05:12:42.015Z,0.55
2023-11-24T05:15:10.288Z,0.50
2023-11-24T05:17:39.545Z,0.50
2023-11-24T05:20:13.386Z,0.45
2023-11-24T05:22:41.266Z,0.40
2023-11-24T05:25:09.895Z,0.45
2023-11-24T05:27:37.657Z,0.50
2023-11-24T05:30:10.023Z,0.50
2023-11-24T05:32:38.596Z,0.50
2023-11-24T05:35:08.413Z,0.50
2023-11-24T05:37:36.008Z,1.10
2023-11-24T05:40:07.857Z,0.38
2023-11-24T05:42:35.642Z,0.60
2023-11-24T05:45:04.360Z,0.60
2023-11-24T05:47:33.079Z,1.40
2023-11-24T05:50:00.736Z,5.38
2023-11-24T05:52:29.610Z,9.05
2023-11-24T05:54:59.435Z,1.90
2023-11-24T05:57:27.185Z,0.60
2023-11-24T05:59:54.936Z,0.85
2023-11-24T06:02:22.940Z,0.40
2023-11-24T06:04:50.890Z,0.30
2023-11-24T06:07:18.914Z,0.40
2023-11-24T06:09:47.935Z,0.25
2023-11-24T06:12:15.618Z,0.45
2023-11-24T06:14:43.340Z,0.70
2023-11-24T06:17:10.960Z,0.50
2023-11-24T06:19:38.613Z,0.32
2023-11-24T06:22:06.367Z,0.50
2023-11-24T06:24:34.078Z,0.35
2023-11-24T06:27:03.028Z,0.98
2023-11-24T06:29:31.612Z,0.80
2023-11-24T06:31:59.257Z,0.65
2023-11-24T06:34:29.058Z,0.30
2023-11-24T06:36:56.712Z,0.30
2023-11-24T06:39:24.275Z,0.25
2023-11-24T06:41:52.390Z,0.90
2023-11-24T06:44:23.687Z,0.60
2023-11-24T06:46:51.309Z,0.93
2023-11-24T06:49:19.138Z,0.43
2023-11-24T06:51:49.476Z,1.00
2023-11-24T06:54:17.088Z,2.35
2023-11-24T06:56:44.916Z,1.10
2023-11-24T06:59:12.547Z,0.70
2023-11-24T07:01:41.537Z,0.70
2023-11-24T07:04:09.360Z,0.65
2023-11-24T07:06:37.142Z,0.63
2023-11-24T07:09:06.117Z,0.55
2023-11-24T07:11:33.743Z,0.73
2023-11-24T07:14:01.345Z,0.63
2023-11-24T07:16:29.226Z,0.60
2023-11-24T07:18:59.365Z,0.80
2023-11-24T07:21:27.012Z,1.00
2023-11-24T07:23:54.632Z,0.77
2023-11-24T07:26:23.091Z,0.82
2023-11-24T07:28:50.792Z,0.90
2023-11-24T07:31:18.810Z,0.70
2023-11-24T07:33:49.764Z,1.05
2023-11-24T07:36:20.053Z,0.80
2023-11-24T07:38:47.862Z,0.68
2023-11-24T07:41:15.677Z,0.68
2023-11-24T07:43:43.420Z,0.77
2023-11-24T07:46:12.271Z,1.10
2023-11-24T07:48:40.201Z,0.70
2023-11-24T07:51:07.829Z,1.05
2023-11-24T07:53:36.778Z,1.20
2023-11-24T07:56:05.302Z,1.20
2023-11-24T07:58:33.019Z,1.10
2023-11-24T08:01:01.847Z,1.40
2023-11-24T08:03:30.679Z,2.13
2023-11-24T08:05:59.236Z,5.97
2023-11-24T08:08:26.941Z,1.85
2023-11-24T08:10:55.869Z,1.33
2023-11-24T08:13:23.696Z,1.20
2023-11-24T08:15:51.299Z,0.85
2023-11-24T08:18:18.891Z,0.93
2023-11-24T08:20:46.524Z,1.48
2023-11-24T08:23:16.652Z,1.10
2023-11-24T08:25:44.828Z,1.00
2023-11-24T08:28:13.859Z,1.48
2023-11-24T08:30:41.714Z,1.15
2023-11-24T08:33:09.344Z,1.00
2023-11-24T08:35:39.590Z,1.40
2023-11-24T08:38:07.474Z,0.70
2023-11-24T08:40:35.080Z,1.17
2023-11-24T08:43:02.860Z,1.02
2023-11-24T08:45:32.527Z,1.92
2023-11-24T08:48:00.142Z,1.65
2023-11-24T08:50:29.391Z,1.42
2023-11-24T08:52:57.101Z,1.20
2023-11-24T08:55:24.733Z,1.13
2023-11-24T08:57:52.637Z,1.10
2023-11-24T09:00:20.719Z,1.38
2023-11-24T09:02:50.428Z,1.23
2023-11-24T09:05:18.261Z,0.80
2023-11-24T09:07:46.472Z,1.52
2023-11-24T09:10:16.088Z,1.40
2023-11-24T09:12:43.824Z,2.20
2023-11-24T09:15:12.593Z,1.20
2023-11-24T09:17:40.191Z,1.08
2023-11-24T09:20:11.508Z,1.48
2023-11-24T09:22:40.013Z,1.60
2023-11-24T09:25:09.820Z,1.63
2023-11-24T09:27:37.513Z,1.80
2023-11-24T09:30:06.683Z,1.00
2023-11-24T09:32:36.504Z,1.63
2023-11-24T09:35:06.033Z,1.48
2023-11-24T09:37:35.168Z,1.65
2023-11-24T09:40:04.783Z,1.27
2023-11-24T09:42:39.145Z,2.10
2023-11-24T09:45:15.943Z,1.50
2023-11-24T09:47:45.319Z,1.48
2023-11-24T09:50:13.668Z,1.30
2023-11-24T09:52:46.340Z,1.67
2023-11-24T09:55:14.438Z,1.25
2023-11-24T09:57:42.271Z,1.23
2023-11-24T10:00:11.540Z,1.90
2023-11-24T10:02:40.425Z,2.22
2023-11-24T10:05:09.619Z,1.67
2023-11-24T10:07:37.372Z,1.77
2023-11-24T10:10:07.682Z,1.63
2023-11-24T10:12:36.405Z,1.70
2023-11-24T10:15:05.421Z,1.20
2023-11-24T10:17:34.588Z,1.88
2023-11-24T10:20:12.046Z,1.48
2023-11-24T10:22:39.734Z,1.60
2023-11-24T10:25:11.875Z,1.75
2023-11-24T10:27:41.184Z,1.13
2023-11-24T10:30:09.804Z,1.30
2023-11-24T10:32:40.680Z,1.30
2023-11-24T10:35:09.173Z,1.20
2023-11-24T10:37:39.049Z,2.53
2023-11-24T10:40:14.845Z,1.30
2023-11-24T10:42:48.686Z,1.40
2023-11-24T10:45:19.935Z,1.52
2023-11-24T10:48:00.586Z,1.70
2023-11-24T10:50:29.949Z,2.17
2023-11-24T10:53:08.491Z,1.10
2023-11-24T10:55:38.950Z,1.35
2023-11-24T10:58:08.038Z,1.52
2023-11-24T11:00:38.083Z,1.25
2023-11-24T11:03:07.564Z,1.52
2023-11-24T11:05:49.307Z,1.48
2023-11-24T11:08:22.460Z,1.75
2023-11-24T11:11:16.418Z,1.75
2023-11-24T11:16:14.465Z,1.40
2023-11-24T11:18:42.241Z,1.88
2023-11-24T11:21:18.290Z,2.38
2023-11-24T11:23:46.062Z,2.53
2023-11-24T11:26:49.747Z,2.13
2023-11-24T11:29:20.903Z,2.08
2023-11-24T11:31:51.754Z,1.30
2023-11-24T11:34:21.859Z,1.60
2023-11-24T11:37:02.540Z,1.85
2023-11-24T11:39:35.516Z,1.95
2023-11-24T11:42:05.588Z,2.00
2023-11-24T11:44:37.703Z,3.30
2023-11-24T11:47:21.892Z,3.42
2023-11-24T11:49:52.616Z,2.05
2023-11-24T11:52:21.913Z,1.50
2023-11-24T11:54:52.245Z,1.40
2023-11-24T11:57:22.758Z,1.83
2023-11-24T11:59:50.854Z,2.42
2023-11-24T12:02:22.654Z,1.30
2023-11-24T12:04:51.603Z,1.40
2023-11-24T12:07:21.697Z,1.48
2023-11-24T12:09:50.619Z,1.30
2023-11-24T12:12:18.921Z,1.42
2023-11-24T12:14:49.666Z,1.30
2023-11-24T12:17:18.275Z,1.45
2023-11-24T12:19:46.507Z,0.80
2023-11-24T12:22:15.341Z,1.13
2023-11-24T12:24:43.218Z,0.80
2023-11-24T12:27:12.680Z,1.00
2023-11-24T12:29:42.116Z,0.80
2023-11-24T12:32:13.207Z,1.05
2023-11-24T12:34:46.505Z,0.63
2023-11-24T12:37:14.769Z,0.85
2023-11-24T12:39:43.058Z,1.45
2023-11-24T12:42:12.167Z,0.95
2023-11-24T12:44:40.925Z,0.90
2023-11-24T12:47:11.450Z,1.15
2023-11-24T12:50:01.906Z,0.65
2023-11-24T12:52:31.523Z,1.98
2023-11-24T12:54:59.133Z,4.00
2023-11-24T12:57:27.632Z,1.38
2023-11-24T12:59:57.351Z,1.85
2023-11-24T13:02:28.677Z,2.08
2023-11-24T13:04:56.626Z,2.08
2023-11-24T13:07:24.418Z,1.52
2023-11-24T13:09:52.080Z,0.88
2023-11-24T13:12:19.849Z,0.98
2023-11-24T13:14:47.523Z,0.80
2023-11-24T13:17:15.204Z,1.05
2023-11-24T13:19:44.494Z,1.20
2023-11-24T13:22:12.319Z,1.00
2023-11-24T13:24:41.385Z,1.70
2023-11-24T13:27:10.760Z,1.40
2023-11-24T13:29:43.309Z,1.40
2023-11-24T13:32:11.065Z,1.03
2023-11-24T13:34:39.908Z,1.30
2023-11-24T13:37:09.132Z,0.80
2023-11-24T13:39:36.985Z,1.30
2023-11-24T13:42:05.494Z,1.02
2023-11-24T13:44:33.952Z,1.48
2023-11-24T13:47:03.160Z,1.42
2023-11-24T13:49:30.856Z,1.13
2023-11-24T13:51:58.560Z,1.00
2023-11-24T13:54:27.523Z,1.20
2023-11-24T13:56:56.329Z,2.00
2023-11-24T13:59:25.988Z,1.13
2023-11-24T14:01:53.794Z,1.25
2023-11-24T14:04:22.793Z,1.02
2023-11-24T14:06:52.975Z,1.00
2023-11-24T14:09:21.998Z,2.03
2023-11-24T14:11:52.522Z,0.93
2023-11-24T14:14:20.910Z,1.30
2023-11-24T14:16:50.798Z,1.50
2023-11-24T14:19:18.506Z,0.95
2023-11-24T14:21:46.292Z,1.63
2023-11-24T14:24:14.790Z,0.70
2023-11-24T14:26:45.455Z,1.35
2023-11-24T14:29:17.433Z,1.02
2023-11-24T14:31:45.133Z,0.90
2023-11-24T14:34:14.104Z,1.20
2023-11-24T14:36:42.355Z,1.38
2023-11-24T14:39:20.954Z,0.63
2023-11-24T14:41:49.051Z,0.40
2023-11-24T14:44:17.974Z,0.85
2023-11-24T14:46:46.158Z,1.38
2023-11-24T14:49:15.183Z,0.80
2023-11-24T14:51:42.783Z,0.70
2023-11-24T14:54:10.402Z,0.63
2023-11-24T14:56:41.107Z,0.40
2023-11-24T14:59:09.935Z,0.28
2023-11-24T15:01:40.262Z,0.43
2023-11-24T15:04:16.760Z,0.60
2023-11-24T15:06:50.920Z,0.38
2023-11-24T15:09:19.865Z,0.70
2023-11-24T15:11:52.997Z,0.30
2023-11-24T15:14:31.962Z,0.32
2023-11-24T15:17:04.858Z,1.05
2023-11-24T15:19:34.408Z,1.00
2023-11-24T15:22:06.185Z,0.60
2023-11-24T15:24:34.398Z,0.90
2023-11-24T15:27:02.343Z,1.30
2023-11-24T15:29:29.950Z,0.77
2023-11-24T15:31:57.635Z,1.75
2023-11-24T15:34:29.124Z,0.90
2023-11-24T15:36:56.867Z,0.70
2023-11-24T15:39:36.047Z,0.90
2023-11-24T15:42:08.045Z,0.70
2023-11-24T15:44:39.267Z,0.90
2023-11-24T15:47:11.051Z,1.05
2023-11-24T15:49:42.469Z,0.60
2023-11-24T15:52:12.366Z,0.80
2023-11-24T15:54:40.215Z,1.05
2023-11-24T15:57:09.837Z,0.70
2023-11-24T15:59:42.757Z,0.95
2023-11-24T16:02:12.995Z,0.82
2023-11-24T16:04:43.794Z,0.50
2023-11-24T16:07:11.915Z,0.30
2023-11-24T16:09:40.780Z,0.20
2023-11-24T16:12:13.637Z,0.30
2023-11-24T16:14:41.744Z,1.40
2023-11-24T16:17:10.115Z,1.40
2023-11-24T16:19:38.043Z,1.60
2023-11-24T16:22:07.278Z,1.75
2023-11-24T16:24:35.065Z,2.95
2023-11-24T16:27:03.813Z,4.00
2023-11-24T16:29:31.698Z,2.65
2023-11-24T16:32:00.579Z,2.20
2023-11-24T16:34:28.820Z,2.25
2023-11-24T16:36:57.566Z,2.38
2023-11-24T16:39:28.487Z,2.30
2023-11-24T16:41:58.188Z,2.60
2023-11-24T16:44:25.978Z,2.17
2023-11-24T16:46:58.398Z,2.20
2023-11-24T16:49:26.433Z,2.15
2023-11-24T16:51:55.096Z,2.08
2023-11-24T16:54:23.022Z,2.17
2023-11-24T16:56:52.092Z,2.22
2023-11-24T16:59:21.578Z,2.35
2023-11-24T17:01:50.390Z,2.47
2023-11-24T17:04:18.233Z,2.28
2023-11-24T17:06:46.462Z,1.83
2023-11-24T17:09:16.267Z,2.00
2023-11-24T17:11:44.595Z,2.22
2023-11-24T17:14:15.210Z,2.65
2023-11-24T17:16:42.976Z,1.95
2023-11-24T17:19:11.079Z,1.88
2023-11-24T17:21:40.509Z,2.38
2023-11-24T17:24:09.242Z,2.70
2023-11-24T17:26:36.975Z,2.22
2023-11-24T17:29:04.917Z,2.40
2023-11-24T17:31:33.969Z,2.42
2023-11-24T17:34:02.273Z,1.73
2023-11-24T17:36:30.144Z,0.90
2023-11-24T17:38:57.944Z,0.70
2023-11-24T17:41:26.331Z,0.60
2023-11-24T17:43:54.189Z,0.57
2023-11-24T17:46:21.884Z,0.60
2023-11-24T17:48:51.035Z,0.65
2023-11-24T17:51:19.276Z,1.00
2023-11-24T17:53:47.009Z,0.70
2023-11-24T17:56:15.066Z,0.43
2023-11-24T17:58:42.693Z,0.80
2023-11-24T18:01:11.491Z,1.00
2023-11-24T18:03:39.144Z,0.40
2023-11-24T18:06:09.895Z,0.68
2023-11-24T18:08:37.462Z,0.65
2023-11-24T18:11:06.096Z,0.52
2023-11-24T18:13:33.828Z,1.45
2023-11-24T18:16:01.543Z,0.50
2023-11-24T18:18:29.200Z,0.77
2023-11-24T18:20:56.964Z,0.60
2023-11-24T18:23:25.929Z,0.57
2023-11-24T18:25:53.554Z,0.70
2023-11-24T18:28:21.259Z,0.98
2023-11-24T18:30:48.939Z,1.10
2023-11-24T18:33:16.712Z,1.35
2023-11-24T18:35:45.263Z,1.23
2023-11-24T18:38:13.136Z,1.30
2023-11-24T18:40:42.076Z,0.80
2023-11-24T18:43:09.847Z,0.70
2023-11-24T18:45:37.455Z,0.88
2023-11-24T18:48:05.818Z,0.88
2023-11-24T18:50:33.465Z,0.82
2023-11-24T18:53:01.092Z,0.82
2023-11-24T18:55:28.771Z,0.60
2023-11-24T18:57:59.161Z,1.20
2023-11-24T19:00:26.901Z,0.80
2023-11-24T19:02:55.130Z,0.70
2023-11-24T19:05:23.529Z,0.82
2023-11-24T19:07:51.078Z,0.80
2023-11-24T19:10:19.552Z,1.45
2023-11-24T19:12:49.757Z,0.88
2023-11-24T19:15:19.090Z,1.27
2023-11-24T19:17:46.796Z,1.10
2023-11-24T19:20:14.794Z,0.98
2023-11-24T19:22:42.394Z,1.20
2023-11-24T19:25:10.728Z,0.95
2023-11-24T19:27:38.362Z,1.77
2023-11-24T19:30:07.057Z,1.63
2023-11-24T19:32:36.138Z,1.52
2023-11-24T19:35:06.060Z,1.33
2023-11-24T19:37:34.977Z,1.10
2023-11-24T19:40:06.457Z,1.02
2023-11-24T19:42:34.290Z,1.50
2023-11-24T19:45:01.996Z,1.85
2023-11-24T19:47:29.983Z,1.23
2023-11-24T19:49:58.871Z,2.75
2023-11-24T19:52:27.131Z,1.25
2023-11-24T19:54:54.824Z,1.50
2023-11-24T19:57:22.781Z,1.83
2023-11-24T19:59:55.759Z,2.70
2023-11-24T20:02:23.552Z,1.45
2023-11-24T20:04:51.400Z,0.95
2023-11-24T20:07:22.138Z,1.02
2023-11-24T20:09:50.572Z,1.48
2023-11-24T20:12:18.134Z,1.48
2023-11-24T20:14:45.787Z,1.15
2023-11-24T20:17:13.783Z,1.70
2023-11-24T20:19:41.450Z,0.90
2023-11-24T20:22:11.255Z,0.95
2023-11-24T20:24:43.315Z,1.58
2023-11-24T20:27:11.051Z,1.58
2023-11-24T20:29:38.718Z,1.13
2023-11-24T20:32:06.965Z,0.90
2023-11-24T20:34:34.694Z,0.82
2023-11-24T20:37:03.030Z,1.02
2023-11-24T20:39:30.877Z,2.05
2023-11-24T20:42:01.560Z,0.60
2023-11-24T20:44:31.993Z,0.77
2023-11-24T20:47:01.023Z,1.20
2023-11-24T20:49:29.286Z,1.02
2023-11-24T20:51:57.989Z,1.25
2023-11-24T20:54:25.595Z,1.48
2023-11-24T20:56:53.202Z,0.95
2023-11-24T20:59:22.471Z,0.63
2023-11-24T21:01:50.235Z,0.80
2023-11-24T21:04:18.240Z,0.75
2023-11-24T21:06:46.945Z,0.95
2023-11-24T21:09:14.829Z,0.80
2023-11-24T21:11:42.514Z,0.77
2023-11-24T21:14:10.118Z,3.78
2023-11-24T21:16:39.220Z,1.13
2023-11-24T21:19:07.760Z,0.80
2023-11-24T21:21:35.564Z,0.70
2023-11-24T21:24:03.571Z,0.80
2023-11-24T21:26:31.202Z,0.63
2023-11-24T21:28:58.820Z,0.75
2023-11-24T21:31:26.384Z,1.10
2023-11-24T21:33:55.654Z,0.93
2023-11-24T21:36:23.268Z,0.90
2023-11-24T21:38:50.892Z,0.60
2023-11-24T21:41:20.504Z,0.85
2023-11-24T21:43:48.844Z,0.73
2023-11-24T21:46:19.951Z,0.60
2023-11-24T21:48:47.856Z,0.65
2023-11-24T21:51:17.785Z,0.57
2023-11-24T21:53:46.095Z,0.82
2023-11-24T21:56:13.992Z,0.50
2023-11-24T21:58:42.639Z,0.60
2023-11-24T22:01:10.352Z,0.50
2023-11-24T22:03:38.224Z,0.47
2023-11-24T22:06:06.556Z,0.80
2023-11-24T22:08:36.593Z,0.80
2023-11-24T22:11:04.237Z,1.25
2023-11-24T22:13:31.818Z,1.48
2023-11-24T22:16:00.105Z,1.02
2023-11-24T22:18:27.857Z,0.50
2023-11-24T22:20:55.761Z,0.60
2023-11-24T22:23:23.564Z,0.60
2023-11-24T22:25:52.553Z,1.40
2023-11-24T22:28:20.264Z,0.80
2023-11-24T22:30:48.398Z,0.60
2023-11-24T22:33:16.125Z,0.55
2023-11-24T22:35:44.089Z,0.60
2023-11-24T22:38:11.712Z,0.70
2023-11-24T22:40:40.235Z,0.50
2023-11-24T22:43:09.225Z,0.52
2023-11-24T22:45:36.834Z,0.70
2023-11-24T22:48:04.718Z,0.93
2023-11-24T22:50:32.248Z,0.50
2023-11-24T22:52:59.833Z,0.77
2023-11-24T22:55:27.502Z,0.70
2023-11-24T22:57:55.654Z,0.88
2023-11-24T23:00:36.899Z,0.57
2023-11-24T23:03:05.129Z,0.70
2023-11-24T23:05:33.036Z,0.80
2023-11-24T23:08:00.831Z,0.60
2023-11-24T23:10:31.709Z,0.60
2023-11-24T23:13:00.703Z,0.80
2023-11-24T23:15:31.442Z,0.60
2023-11-24T23:17:59.136Z,0.60
2023-11-24T23:20:27.248Z,0.88
2023-11-24T23:22:56.130Z,0.60
2023-11-24T23:25:24.446Z,0.55
2023-11-24T23:27:52.106Z,0.52
2023-11-24T23:30:19.725Z,0.60
2023-11-24T23:32:49.944Z,0.68
2023-11-24T23:35:18.616Z,0.55
2023-11-24T23:37:46.503Z,0.95
2023-11-24T23:40:15.644Z,0.60
2023-11-24T23:42:45.569Z,0.35
2023-11-24T23:45:17.183Z,0.73
2023-11-24T23:47:44.918Z,0.50
2023-11-24T23:50:15.677Z,0.30
2023-11-24T23:52:46.064Z,0.45
2023-11-24T23:55:15.278Z,0.30
2023-11-24T23:57:42.924Z,0.40
